sensor_id;sensor_type;location;lat;lon;timestamp;P1;durP1;ratioP1;P2;durP2;ratioP2
10311;SDS011;5201;48.776;9.128;2022-09-12T00:01:11;7.37;;;4.80;;
10311;SDS011;5201;48.776;9.128;2022-09-12T00:03:45;6.87;;;4.53;;
10311;SDS011;5201;48.776;9.128;2022-09-12T00:06:11;9.40;;;4.70;;
10311;SDS011;5201;48.776;9.128;2022-09-12T00:08:43;4.80;;;4.20;;
10311;SDS011;5201;48.776;9.128;2022-09-12T00:11:09;10.47;;;4.97;;
10311;SDS011;5201;48.776;9.128;2022-09-12T00:13:36;5.93;;;4.80;;
10311;SDS011;5201;48.776;9.128;2022-09-12T00:16:03;5.60;;;4.60;;
10311;SDS011;5201;48.776;9.128;2022-09-12T00:18:29;7.27;;;5.07;;
10311;SDS011;5201;48.776;9.128;2022-09-12T00:20:56;7.60;;;5.00;;
10311;SDS011;5201;48.776;9.128;2022-09-12T00:23:21;9.67;;;6.23;;
10311;SDS011;5201;48.776;9.128;2022-09-12T00:25:47;9.63;;;5.50;;
10311;SDS011;5201;48.776;9.128;2022-09-12T00:28:13;11.10;;;6.27;;
10311;SDS011;5201;48.776;9.128;2022-09-12T00:30:44;8.23;;;6.20;;
10311;SDS011;5201;48.776;9.128;2022-09-12T00:33:11;9.20;;;6.43;;
10311;SDS011;5201;48.776;9.128;2022-09-12T00:35:41;9.17;;;7.50;;
10311;SDS011;5201;48.776;9.128;2022-09-12T00:38:16;8.60;;;5.97;;
10311;SDS011;5201;48.776;9.128;2022-09-12T00:40:43;9.13;;;6.10;;
10311;SDS011;5201;48.776;9.128;2022-09-12T00:43:10;8.53;;;5.13;;
10311;SDS011;5201;48.776;9.128;2022-09-12T00:45:38;9.80;;;5.90;;
10311;SDS011;5201;48.776;9.128;2022-09-12T00:48:07;10.73;;;5.50;;
10311;SDS011;5201;48.776;9.128;2022-09-12T00:50:43;6.80;;;5.10;;
10311;SDS011;5201;48.776;9.128;2022-09-12T00:53:09;5.67;;;4.33;;
10311;SDS011;5201;48.776;9.128;2022-09-12T00:55:37;6.43;;;4.60;;
10311;SDS011;5201;48.776;9.128;2022-09-12T00:58:20;8.37;;;5.33;;
10311;SDS011;5201;48.776;9.128;2022-09-12T01:00:48;7.30;;;5.83;;
10311;SDS011;5201;48.776;9.128;2022-09-12T01:03:16;6.30;;;4.50;;
10311;SDS011;5201;48.776;9.128;2022-09-12T01:05:46;5.37;;;4.43;;
10311;SDS011;5201;48.776;9.128;2022-09-12T01:08:21;6.60;;;5.07;;
10311;SDS011;5201;48.776;9.128;2022-09-12T01:10:47;6.03;;;4.57;;
10311;SDS011;5201;48.776;9.128;2022-09-12T01:13:13;8.00;;;5.27;;
10311;SDS011;5201;48.776;9.128;2022-09-12T01:15:39;7.53;;;5.03;;
10311;SDS011;5201;48.776;9.128;2022-09-12T01:18:10;8.37;;;5.50;;
10311;SDS011;5201;48.776;9.128;2022-09-12T01:20:45;5.47;;;4.93;;
10311;SDS011;5201;48.776;9.128;2022-09-12T01:32:04;6.67;;;4.30;;
10311;SDS011;5201;48.776;9.128;2022-09-12T01:37:35;5.70;;;4.13;;
10311;SDS011;5201;48.776;9.128;2022-09-12T01:40:08;6.93;;;3.83;;
10311;SDS011;5201;48.776;9.128;2022-09-12T01:42:42;4.60;;;4.07;;
10311;SDS011;5201;48.776;9.128;2022-09-12T01:45:23;4.10;;;3.70;;
10311;SDS011;5201;48.776;9.128;2022-09-12T01:48:02;5.57;;;4.00;;
10311;SDS011;5201;48.776;9.128;2022-09-12T01:50:30;6.93;;;4.07;;
10311;SDS011;5201;48.776;9.128;2022-09-12T01:53:03;5.73;;;4.27;;
10311;SDS011;5201;48.776;9.128;2022-09-12T01:55:34;4.03;;;3.43;;
10311;SDS011;5201;48.776;9.128;2022-09-12T01:58:06;4.07;;;3.67;;
10311;SDS011;5201;48.776;9.128;2022-09-12T02:00:41;5.20;;;4.00;;
10311;SDS011;5201;48.776;9.128;2022-09-12T02:03:15;4.10;;;3.70;;
10311;SDS011;5201;48.776;9.128;2022-09-12T02:05:58;6.27;;;4.30;;
10311;SDS011;5201;48.776;9.128;2022-09-12T02:08:32;6.30;;;3.93;;
10311;SDS011;5201;48.776;9.128;2022-09-12T02:11:08;5.13;;;4.03;;
10311;SDS011;5201;48.776;9.128;2022-09-12T02:16:11;4.73;;;4.23;;
10311;SDS011;5201;48.776;9.128;2022-09-12T02:18:44;5.20;;;4.70;;
10311;SDS011;5201;48.776;9.128;2022-09-12T02:21:13;5.77;;;4.73;;
10311;SDS011;5201;48.776;9.128;2022-09-12T02:23:44;6.70;;;4.10;;
10311;SDS011;5201;48.776;9.128;2022-09-12T02:26:22;6.63;;;5.13;;
10311;SDS011;5201;48.776;9.128;2022-09-12T02:28:52;6.83;;;4.80;;
10311;SDS011;5201;48.776;9.128;2022-09-12T02:31:28;9.83;;;4.97;;
10311;SDS011;5201;48.776;9.128;2022-09-12T02:39:37;11.00;;;5.40;;
10311;SDS011;5201;48.776;9.128;2022-09-12T02:42:03;6.47;;;5.23;;
10311;SDS011;5201;48.776;9.128;2022-09-12T02:44:30;5.93;;;5.07;;
10311;SDS011;5201;48.776;9.128;2022-09-12T02:46:59;6.97;;;4.10;;
10311;SDS011;5201;48.776;9.128;2022-09-12T02:49:32;7.93;;;5.07;;
10311;SDS011;5201;48.776;9.128;2022-09-12T02:51:58;9.10;;;6.60;;
10311;SDS011;5201;48.776;9.128;2022-09-12T02:54:25;6.30;;;5.00;;
10311;SDS011;5201;48.776;9.128;2022-09-12T02:56:51;11.13;;;5.93;;
10311;SDS011;5201;48.776;9.128;2022-09-12T02:59:17;8.00;;;6.47;;
10311;SDS011;5201;48.776;9.128;2022-09-12T03:13:17;13.77;;;7.43;;
10311;SDS011;5201;48.776;9.128;2022-09-12T03:18:17;9.73;;;6.83;;
10311;SDS011;5201;48.776;9.128;2022-09-12T03:20:59;10.70;;;7.23;;
10311;SDS011;5201;48.776;9.128;2022-09-12T03:23:33;10.40;;;7.10;;
10311;SDS011;5201;48.776;9.128;2022-09-12T03:26:20;8.03;;;6.23;;
10311;SDS011;5201;48.776;9.128;2022-09-12T03:28:55;7.63;;;5.70;;
10311;SDS011;5201;48.776;9.128;2022-09-12T03:31:21;8.80;;;5.97;;
10311;SDS011;5201;48.776;9.128;2022-09-12T03:33:47;8.97;;;6.07;;
10311;SDS011;5201;48.776;9.128;2022-09-12T03:36:18;8.97;;;5.67;;
10311;SDS011;5201;48.776;9.128;2022-09-12T03:38:47;7.43;;;5.57;;
10311;SDS011;5201;48.776;9.128;2022-09-12T03:41:13;8.40;;;5.33;;
10311;SDS011;5201;48.776;9.128;2022-09-12T03:43:39;5.83;;;4.93;;
10311;SDS011;5201;48.776;9.128;2022-09-12T03:46:05;8.03;;;5.53;;
10311;SDS011;5201;48.776;9.128;2022-09-12T03:48:31;8.13;;;5.37;;
10311;SDS011;5201;48.776;9.128;2022-09-12T03:51:03;8.87;;;5.60;;
10311;SDS011;5201;48.776;9.128;2022-09-12T03:53:30;5.90;;;4.87;;
10311;SDS011;5201;48.776;9.128;2022-09-12T03:55:56;6.73;;;5.17;;
10311;SDS011;5201;48.776;9.128;2022-09-12T03:58:23;9.17;;;5.37;;
10311;SDS011;5201;48.776;9.128;2022-09-12T04:00:49;4.80;;;4.30;;
10311;SDS011;5201;48.776;9.128;2022-09-12T04:03:15;7.20;;;5.00;;
10311;SDS011;5201;48.776;9.128;2022-09-12T04:05:43;10.50;;;4.97;;
10311;SDS011;5201;48.776;9.128;2022-09-12T04:08:08;7.73;;;4.67;;
10311;SDS011;5201;48.776;9.128;2022-09-12T04:10:34;5.27;;;4.77;;
10311;SDS011;5201;48.776;9.128;2022-09-12T04:13:00;10.33;;;4.57;;
10311;SDS011;5201;48.776;9.128;2022-09-12T04:15:25;8.23;;;4.80;;
10311;SDS011;5201;48.776;9.128;2022-09-12T04:17:51;4.63;;;3.90;;
10311;SDS011;5201;48.776;9.128;2022-09-12T04:20:16;5.50;;;4.47;;
10311;SDS011;5201;48.776;9.128;2022-09-12T04:22:43;7.17;;;4.93;;
10311;SDS011;5201;48.776;9.128;2022-09-12T04:25:08;7.70;;;5.17;;
10311;SDS011;5201;48.776;9.128;2022-09-12T04:27:34;6.30;;;4.43;;
10311;SDS011;5201;48.776;9.128;2022-09-12T04:30:00;6.20;;;4.73;;
10311;SDS011;5201;48.776;9.128;2022-09-12T04:32:26;6.73;;;4.60;;
10311;SDS011;5201;48.776;9.128;2022-09-12T04:34:56;5.50;;;4.70;;
10311;SDS011;5201;48.776;9.128;2022-09-12T04:37:21;7.47;;;4.30;;
10311;SDS011;5201;48.776;9.128;2022-09-12T04:39:48;5.57;;;4.43;;
10311;SDS011;5201;48.776;9.128;2022-09-12T04:42:14;7.23;;;4.53;;
10311;SDS011;5201;48.776;9.128;2022-09-12T04:44:40;5.63;;;4.10;;
10311;SDS011;5201;48.776;9.128;2022-09-12T04:47:06;5.97;;;4.10;;
10311;SDS011;5201;48.776;9.128;2022-09-12T04:49:31;6.13;;;4.17;;
10311;SDS011;5201;48.776;9.128;2022-09-12T04:51:57;6.23;;;4.93;;
10311;SDS011;5201;48.776;9.128;2022-09-12T04:54:23;5.50;;;4.63;;
10311;SDS011;5201;48.776;9.128;2022-09-12T04:56:49;6.10;;;4.60;;
10311;SDS011;5201;48.776;9.128;2022-09-12T04:59:17;7.00;;;4.73;;
10311;SDS011;5201;48.776;9.128;2022-09-12T05:01:44;4.97;;;3.90;;
10311;SDS011;5201;48.776;9.128;2022-09-12T05:04:10;5.27;;;4.37;;
10311;SDS011;5201;48.776;9.128;2022-09-12T05:06:37;6.97;;;4.93;;
10311;SDS011;5201;48.776;9.128;2022-09-12T05:09:05;14.17;;;6.27;;
10311;SDS011;5201;48.776;9.128;2022-09-12T05:11:32;12.97;;;6.17;;
10311;SDS011;5201;48.776;9.128;2022-09-12T05:14:00;9.97;;;6.07;;
10311;SDS011;5201;48.776;9.128;2022-09-12T05:16:26;11.47;;;6.10;;
10311;SDS011;5201;48.776;9.128;2022-09-12T05:18:54;11.77;;;6.23;;
10311;SDS011;5201;48.776;9.128;2022-09-12T05:21:21;13.40;;;6.70;;
10311;SDS011;5201;48.776;9.128;2022-09-12T05:23:49;12.73;;;5.80;;
10311;SDS011;5201;48.776;9.128;2022-09-12T05:26:20;12.83;;;6.33;;
10311;SDS011;5201;48.776;9.128;2022-09-12T05:28:47;10.77;;;5.87;;
10311;SDS011;5201;48.776;9.128;2022-09-12T05:31:24;11.17;;;6.20;;
10311;SDS011;5201;48.776;9.128;2022-09-12T05:33:51;11.67;;;5.60;;
10311;SDS011;5201;48.776;9.128;2022-09-12T05:36:20;8.93;;;5.13;;
10311;SDS011;5201;48.776;9.128;2022-09-12T05:38:49;12.93;;;6.27;;
10311;SDS011;5201;48.776;9.128;2022-09-12T05:41:15;9.57;;;5.50;;
10311;SDS011;5201;48.776;9.128;2022-09-12T05:43:43;7.20;;;5.27;;
10311;SDS011;5201;48.776;9.128;2022-09-12T05:46:11;10.27;;;5.57;;
10311;SDS011;5201;48.776;9.128;2022-09-12T05:48:39;12.40;;;5.93;;
10311;SDS011;5201;48.776;9.128;2022-09-12T05:51:10;5.50;;;5.00;;
10311;SDS011;5201;48.776;9.128;2022-09-12T05:53:38;6.80;;;5.30;;
10311;SDS011;5201;48.776;9.128;2022-09-12T05:58:37;9.20;;;5.40;;
10311;SDS011;5201;48.776;9.128;2022-09-12T06:01:05;11.03;;;5.87;;
10311;SDS011;5201;48.776;9.128;2022-09-12T06:03:39;8.30;;;4.90;;
10311;SDS011;5201;48.776;9.128;2022-09-12T06:06:06;8.23;;;4.97;;
10311;SDS011;5201;48.776;9.128;2022-09-12T06:08:32;11.37;;;5.37;;
10311;SDS011;5201;48.776;9.128;2022-09-12T06:11:02;11.17;;;6.50;;
10311;SDS011;5201;48.776;9.128;2022-09-12T06:13:33;6.60;;;5.03;;
10311;SDS011;5201;48.776;9.128;2022-09-12T06:16:01;10.47;;;5.20;;
10311;SDS011;5201;48.776;9.128;2022-09-12T06:18:32;6.00;;;4.07;;
10311;SDS011;5201;48.776;9.128;2022-09-12T06:21:06;5.67;;;4.70;;
10311;SDS011;5201;48.776;9.128;2022-09-12T06:23:33;8.43;;;4.20;;
10311;SDS011;5201;48.776;9.128;2022-09-12T06:25:59;5.57;;;4.93;;
10311;SDS011;5201;48.776;9.128;2022-09-12T06:28:26;5.50;;;4.60;;
10311;SDS011;5201;48.776;9.128;2022-09-12T06:30:52;6.03;;;4.70;;
10311;SDS011;5201;48.776;9.128;2022-09-12T06:33:17;4.73;;;4.30;;
10311;SDS011;5201;48.776;9.128;2022-09-12T06:35:43;9.40;;;4.90;;
10311;SDS011;5201;48.776;9.128;2022-09-12T06:38:08;6.30;;;4.70;;
10311;SDS011;5201;48.776;9.128;2022-09-12T06:40:39;5.83;;;4.63;;
10311;SDS011;5201;48.776;9.128;2022-09-12T06:43:07;5.97;;;4.30;;
10311;SDS011;5201;48.776;9.128;2022-09-12T06:45:34;4.97;;;3.80;;
10311;SDS011;5201;48.776;9.128;2022-09-12T06:47:59;5.30;;;3.83;;
10311;SDS011;5201;48.776;9.128;2022-09-12T06:50:25;4.53;;;3.90;;
10311;SDS011;5201;48.776;9.128;2022-09-12T06:52:52;4.37;;;3.97;;
10311;SDS011;5201;48.776;9.128;2022-09-12T06:55:17;4.83;;;4.20;;
10311;SDS011;5201;48.776;9.128;2022-09-12T06:57:43;5.50;;;3.97;;
10311;SDS011;5201;48.776;9.128;2022-09-12T07:00:09;5.57;;;3.70;;
10311;SDS011;5201;48.776;9.128;2022-09-12T07:02:35;7.50;;;4.00;;
10311;SDS011;5201;48.776;9.128;2022-09-12T07:05:01;8.60;;;4.03;;
10311;SDS011;5201;48.776;9.128;2022-09-12T07:07:26;4.37;;;3.27;;
10311;SDS011;5201;48.776;9.128;2022-09-12T07:09:52;5.70;;;3.50;;
10311;SDS011;5201;48.776;9.128;2022-09-12T07:12:18;4.93;;;3.80;;
10311;SDS011;5201;48.776;9.128;2022-09-12T07:14:43;4.40;;;4.00;;
10311;SDS011;5201;48.776;9.128;2022-09-12T07:17:09;4.07;;;3.27;;
10311;SDS011;5201;48.776;9.128;2022-09-12T07:19:36;3.00;;;2.70;;
10311;SDS011;5201;48.776;9.128;2022-09-12T07:22:01;5.70;;;2.83;;
10311;SDS011;5201;48.776;9.128;2022-09-12T07:24:28;4.57;;;2.80;;
10311;SDS011;5201;48.776;9.128;2022-09-12T07:26:53;4.30;;;2.80;;
10311;SDS011;5201;48.776;9.128;2022-09-12T07:29:19;3.20;;;2.90;;
10311;SDS011;5201;48.776;9.128;2022-09-12T07:31:44;3.90;;;2.90;;
10311;SDS011;5201;48.776;9.128;2022-09-12T07:34:10;4.10;;;2.77;;
10311;SDS011;5201;48.776;9.128;2022-09-12T07:36:36;4.17;;;2.57;;
10311;SDS011;5201;48.776;9.128;2022-09-12T07:39:02;2.53;;;2.30;;
10311;SDS011;5201;48.776;9.128;2022-09-12T07:41:28;5.20;;;4.70;;
10311;SDS011;5201;48.776;9.128;2022-09-12T07:43:56;3.53;;;2.20;;
10311;SDS011;5201;48.776;9.128;2022-09-12T07:46:23;5.97;;;2.10;;
10311;SDS011;5201;48.776;9.128;2022-09-12T07:48:54;3.50;;;2.00;;
10311;SDS011;5201;48.776;9.128;2022-09-12T07:51:21;5.50;;;2.50;;
10311;SDS011;5201;48.776;9.128;2022-09-12T07:53:48;2.83;;;1.97;;
10311;SDS011;5201;48.776;9.128;2022-09-12T07:56:14;2.50;;;1.70;;
10311;SDS011;5201;48.776;9.128;2022-09-12T07:58:41;2.43;;;1.83;;
10311;SDS011;5201;48.776;9.128;2022-09-12T08:01:09;1.67;;;1.57;;
10311;SDS011;5201;48.776;9.128;2022-09-12T08:03:48;2.27;;;1.80;;
10311;SDS011;5201;48.776;9.128;2022-09-12T08:06:17;1.43;;;1.33;;
10311;SDS011;5201;48.776;9.128;2022-09-12T08:08:44;1.80;;;1.70;;
10311;SDS011;5201;48.776;9.128;2022-09-12T08:11:11;1.90;;;1.80;;
10311;SDS011;5201;48.776;9.128;2022-09-12T08:13:38;3.57;;;2.10;;
10311;SDS011;5201;48.776;9.128;2022-09-12T08:16:06;4.30;;;1.83;;
10311;SDS011;5201;48.776;9.128;2022-09-12T08:18:35;3.07;;;1.50;;
10311;SDS011;5201;48.776;9.128;2022-09-12T08:21:02;3.47;;;1.80;;
10311;SDS011;5201;48.776;9.128;2022-09-12T08:23:30;2.72;;;2.15;;
10311;SDS011;5201;48.776;9.128;2022-09-12T08:25:57;1.85;;;1.67;;
10311;SDS011;5201;48.776;9.128;2022-09-12T08:28:25;3.00;;;1.85;;
10311;SDS011;5201;48.776;9.128;2022-09-12T08:30:51;3.53;;;1.65;;
10311;SDS011;5201;48.776;9.128;2022-09-12T08:33:18;5.45;;;3.25;;
10311;SDS011;5201;48.776;9.128;2022-09-12T08:35:44;5.63;;;2.50;;
10311;SDS011;5201;48.776;9.128;2022-09-12T08:38:09;4.53;;;2.40;;
10311;SDS011;5201;48.776;9.128;2022-09-12T08:40:42;2.50;;;2.28;;
10311;SDS011;5201;48.776;9.128;2022-09-12T08:47:19;3.22;;;2.38;;
10311;SDS011;5201;48.776;9.128;2022-09-12T08:52:22;4.85;;;2.28;;
10311;SDS011;5201;48.776;9.128;2022-09-12T08:54:49;3.53;;;2.20;;
10311;SDS011;5201;48.776;9.128;2022-09-12T08:57:15;2.08;;;1.88;;
10311;SDS011;5201;48.776;9.128;2022-09-12T08:59:43;2.05;;;1.83;;
10311;SDS011;5201;48.776;9.128;2022-09-12T09:02:18;2.88;;;1.63;;
10311;SDS011;5201;48.776;9.128;2022-09-12T09:08:00;3.42;;;1.73;;
10311;SDS011;5201;48.776;9.128;2022-09-12T09:10:34;2.53;;;1.45;;
10311;SDS011;5201;48.776;9.128;2022-09-12T09:13:32;2.30;;;1.50;;
10311;SDS011;5201;48.776;9.128;2022-09-12T09:16:57;2.10;;;1.65;;
10311;SDS011;5201;48.776;9.128;2022-09-12T09:19:25;2.88;;;1.40;;
10311;SDS011;5201;48.776;9.128;2022-09-12T09:22:01;1.65;;;1.55;;
10311;SDS011;5201;48.776;9.128;2022-09-12T09:24:37;1.70;;;1.13;;
10311;SDS011;5201;48.776;9.128;2022-09-12T09:30:04;1.55;;;0.80;;
10311;SDS011;5201;48.776;9.128;2022-09-12T09:32:36;2.67;;;1.20;;
10311;SDS011;5201;48.776;9.128;2022-09-12T09:35:15;0.90;;;0.80;;
10311;SDS011;5201;48.776;9.128;2022-09-12T09:38:05;1.45;;;0.90;;
10311;SDS011;5201;48.776;9.128;2022-09-12T09:40:59;1.50;;;0.93;;
10311;SDS011;5201;48.776;9.128;2022-09-12T09:43:33;2.40;;;0.93;;
10311;SDS011;5201;48.776;9.128;2022-09-12T09:46:01;0.70;;;0.70;;
10311;SDS011;5201;48.776;9.128;2022-09-12T09:48:28;2.63;;;0.80;;
10311;SDS011;5201;48.776;9.128;2022-09-12T09:50:57;1.85;;;0.68;;
10311;SDS011;5201;48.776;9.128;2022-09-12T09:56:32;2.25;;;0.70;;
10311;SDS011;5201;48.776;9.128;2022-09-12T10:01:34;0.80;;;0.80;;
10311;SDS011;5201;48.776;9.128;2022-09-12T10:03:59;1.08;;;0.55;;
10311;SDS011;5201;48.776;9.128;2022-09-12T10:06:28;0.95;;;0.95;;
10311;SDS011;5201;48.776;9.128;2022-09-12T10:09:03;4.50;;;0.70;;
10311;SDS011;5201;48.776;9.128;2022-09-12T10:11:31;0.50;;;0.50;;
10311;SDS011;5201;48.776;9.128;2022-09-12T10:13:57;0.60;;;0.60;;
10311;SDS011;5201;48.776;9.128;2022-09-12T10:18:56;0.88;;;0.60;;
10311;SDS011;5201;48.776;9.128;2022-09-12T10:26:54;1.63;;;0.80;;
10311;SDS011;5201;48.776;9.128;2022-09-12T10:29:24;1.00;;;0.93;;
10311;SDS011;5201;48.776;9.128;2022-09-12T10:31:54;1.42;;;0.75;;
10311;SDS011;5201;48.776;9.128;2022-09-12T10:36:58;0.50;;;0.50;;
10311;SDS011;5201;48.776;9.128;2022-09-12T10:39:32;0.60;;;0.60;;
10311;SDS011;5201;48.776;9.128;2022-09-12T10:42:00;4.88;;;0.60;;
10311;SDS011;5201;48.776;9.128;2022-09-12T10:44:28;1.05;;;0.70;;
10311;SDS011;5201;48.776;9.128;2022-09-12T10:46:55;2.10;;;0.70;;
10311;SDS011;5201;48.776;9.128;2022-09-12T10:49:29;0.68;;;0.68;;
10311;SDS011;5201;48.776;9.128;2022-09-12T10:55:00;1.60;;;1.42;;
10311;SDS011;5201;48.776;9.128;2022-09-12T11:02:49;1.10;;;0.60;;
10311;SDS011;5201;48.776;9.128;2022-09-12T11:05:34;0.40;;;0.40;;
10311;SDS011;5201;48.776;9.128;2022-09-12T11:16:43;1.33;;;0.60;;
10311;SDS011;5201;48.776;9.128;2022-09-12T11:20:12;0.40;;;0.40;;
10311;SDS011;5201;48.776;9.128;2022-09-12T11:28:24;0.43;;;0.43;;
10311;SDS011;5201;48.776;9.128;2022-09-12T11:33:34;0.57;;;0.47;;
10311;SDS011;5201;48.776;9.128;2022-09-12T11:39:21;0.52;;;0.50;;
10311;SDS011;5201;48.776;9.128;2022-09-12T11:41:57;0.52;;;0.50;;
10311;SDS011;5201;48.776;9.128;2022-09-12T11:44:27;1.95;;;0.40;;
10311;SDS011;5201;48.776;9.128;2022-09-12T11:47:25;0.50;;;0.50;;
10311;SDS011;5201;48.776;9.128;2022-09-12T11:49:53;0.40;;;0.40;;
10311;SDS011;5201;48.776;9.128;2022-09-12T11:52:22;2.08;;;0.60;;
10311;SDS011;5201;48.776;9.128;2022-09-12T11:54:50;0.50;;;0.40;;
10311;SDS011;5201;48.776;9.128;2022-09-12T12:00:04;1.13;;;0.60;;
10311;SDS011;5201;48.776;9.128;2022-09-12T12:02:54;0.90;;;0.45;;
10311;SDS011;5201;48.776;9.128;2022-09-12T12:07:57;0.45;;;0.45;;
10311;SDS011;5201;48.776;9.128;2022-09-12T12:10:26;0.80;;;0.80;;
10311;SDS011;5201;48.776;9.128;2022-09-12T12:12:58;0.30;;;0.30;;
10311;SDS011;5201;48.776;9.128;2022-09-12T12:15:26;3.00;;;0.35;;
10311;SDS011;5201;48.776;9.128;2022-09-12T12:18:06;0.32;;;0.30;;
10311;SDS011;5201;48.776;9.128;2022-09-12T12:20:52;1.00;;;0.30;;
10311;SDS011;5201;48.776;9.128;2022-09-12T12:23:23;0.50;;;0.50;;
10311;SDS011;5201;48.776;9.128;2022-09-12T12:25:57;0.47;;;0.40;;
10311;SDS011;5201;48.776;9.128;2022-09-12T12:31:15;5.88;;;0.70;;
10311;SDS011;5201;48.776;9.128;2022-09-12T12:36:08;0.30;;;0.30;;
10311;SDS011;5201;48.776;9.128;2022-09-12T12:38:35;3.65;;;0.55;;
10311;SDS011;5201;48.776;9.128;2022-09-12T12:43:47;0.40;;;0.40;;
10311;SDS011;5201;48.776;9.128;2022-09-12T12:46:18;3.28;;;0.60;;
10311;SDS011;5201;48.776;9.128;2022-09-12T12:48:56;0.47;;;0.47;;
10311;SDS011;5201;48.776;9.128;2022-09-12T12:57:02;2.92;;;0.52;;
10311;SDS011;5201;48.776;9.128;2022-09-12T12:59:55;1.02;;;0.47;;
10311;SDS011;5201;48.776;9.128;2022-09-12T13:02:35;0.30;;;0.30;;
10311;SDS011;5201;48.776;9.128;2022-09-12T13:05:14;0.60;;;0.60;;
10311;SDS011;5201;48.776;9.128;2022-09-12T13:07:43;0.40;;;0.40;;
10311;SDS011;5201;48.776;9.128;2022-09-12T13:13:16;0.40;;;0.40;;
10311;SDS011;5201;48.776;9.128;2022-09-12T13:15:49;0.57;;;0.47;;
10311;SDS011;5201;48.776;9.128;2022-09-12T13:20:59;0.40;;;0.40;;
10311;SDS011;5201;48.776;9.128;2022-09-12T13:23:39;0.52;;;0.52;;
10311;SDS011;5201;48.776;9.128;2022-09-12T13:26:22;0.40;;;0.40;;
10311;SDS011;5201;48.776;9.128;2022-09-12T13:28:49;0.40;;;0.40;;
10311;SDS011;5201;48.776;9.128;2022-09-12T13:31:32;0.50;;;0.50;;
10311;SDS011;5201;48.776;9.128;2022-09-12T13:33:58;0.60;;;0.40;;
10311;SDS011;5201;48.776;9.128;2022-09-12T13:36:42;0.57;;;0.47;;
10311;SDS011;5201;48.776;9.128;2022-09-12T13:39:20;0.20;;;0.20;;
10311;SDS011;5201;48.776;9.128;2022-09-12T13:44:41;0.63;;;0.30;;
10311;SDS011;5201;48.776;9.128;2022-09-12T13:50:07;1.10;;;0.40;;
10311;SDS011;5201;48.776;9.128;2022-09-12T13:52:41;0.30;;;0.30;;
10311;SDS011;5201;48.776;9.128;2022-09-12T13:55:22;0.50;;;0.50;;
10311;SDS011;5201;48.776;9.128;2022-09-12T13:58:04;0.20;;;0.20;;
10311;SDS011;5201;48.776;9.128;2022-09-12T14:00:39;1.50;;;0.32;;
10311;SDS011;5201;48.776;9.128;2022-09-12T14:03:12;0.20;;;0.20;;
10311;SDS011;5201;48.776;9.128;2022-09-12T14:06:10;1.33;;;0.57;;
10311;SDS011;5201;48.776;9.128;2022-09-12T14:08:40;0.50;;;0.40;;
10311;SDS011;5201;48.776;9.128;2022-09-12T14:11:10;0.40;;;0.22;;
10311;SDS011;5201;48.776;9.128;2022-09-12T14:13:41;0.40;;;0.40;;
10311;SDS011;5201;48.776;9.128;2022-09-12T14:16:08;0.73;;;0.40;;
10311;SDS011;5201;48.776;9.128;2022-09-12T14:18:36;0.20;;;0.20;;
10311;SDS011;5201;48.776;9.128;2022-09-12T14:21:09;0.93;;;0.50;;
10311;SDS011;5201;48.776;9.128;2022-09-12T14:23:40;0.40;;;0.40;;
10311;SDS011;5201;48.776;9.128;2022-09-12T14:26:09;0.95;;;0.40;;
10311;SDS011;5201;48.776;9.128;2022-09-12T14:28:38;0.55;;;0.35;;
10311;SDS011;5201;48.776;9.128;2022-09-12T14:31:08;0.65;;;0.38;;
10311;SDS011;5201;48.776;9.128;2022-09-12T14:33:49;0.63;;;0.40;;
10311;SDS011;5201;48.776;9.128;2022-09-12T14:36:17;0.47;;;0.40;;
10311;SDS011;5201;48.776;9.128;2022-09-12T14:38:49;2.55;;;0.40;;
10311;SDS011;5201;48.776;9.128;2022-09-12T14:41:23;0.52;;;0.45;;
10311;SDS011;5201;48.776;9.128;2022-09-12T14:43:54;0.73;;;0.40;;
10311;SDS011;5201;48.776;9.128;2022-09-12T14:46:26;0.30;;;0.30;;
10311;SDS011;5201;48.776;9.128;2022-09-12T14:48:59;0.63;;;0.40;;
10311;SDS011;5201;48.776;9.128;2022-09-12T14:51:35;0.57;;;0.40;;
10311;SDS011;5201;48.776;9.128;2022-09-12T14:54:02;0.35;;;0.35;;
10311;SDS011;5201;48.776;9.128;2022-09-12T14:56:41;0.63;;;0.40;;
10311;SDS011;5201;48.776;9.128;2022-09-12T15:04:44;0.65;;;0.40;;
10311;SDS011;5201;48.776;9.128;2022-09-12T15:09:56;0.22;;;0.22;;
10311;SDS011;5201;48.776;9.128;2022-09-12T15:12:23;0.40;;;0.40;;
10311;SDS011;5201;48.776;9.128;2022-09-12T15:14:49;0.30;;;0.30;;
10311;SDS011;5201;48.776;9.128;2022-09-12T15:17:14;3.35;;;0.40;;
10311;SDS011;5201;48.776;9.128;2022-09-12T15:19:40;0.63;;;0.50;;
10311;SDS011;5201;48.776;9.128;2022-09-12T15:22:07;0.40;;;0.40;;
10311;SDS011;5201;48.776;9.128;2022-09-12T15:24:37;0.30;;;0.30;;
10311;SDS011;5201;48.776;9.128;2022-09-12T15:27:07;0.40;;;0.30;;
10311;SDS011;5201;48.776;9.128;2022-09-12T15:29:35;0.32;;;0.30;;
10311;SDS011;5201;48.776;9.128;2022-09-12T15:32:01;1.38;;;0.40;;
10311;SDS011;5201;48.776;9.128;2022-09-12T15:34:28;0.77;;;0.50;;
10311;SDS011;5201;48.776;9.128;2022-09-12T15:36:54;0.38;;;0.38;;
10311;SDS011;5201;48.776;9.128;2022-09-12T15:39:19;1.13;;;0.60;;
10311;SDS011;5201;48.776;9.128;2022-09-12T15:41:45;0.35;;;0.35;;
10311;SDS011;5201;48.776;9.128;2022-09-12T15:44:12;0.30;;;0.30;;
10311;SDS011;5201;48.776;9.128;2022-09-12T15:46:38;0.40;;;0.40;;
10311;SDS011;5201;48.776;9.128;2022-09-12T15:49:04;0.40;;;0.40;;
10311;SDS011;5201;48.776;9.128;2022-09-12T15:51:31;4.50;;;0.88;;
10311;SDS011;5201;48.776;9.128;2022-09-12T15:53:57;0.65;;;0.40;;
10311;SDS011;5201;48.776;9.128;2022-09-12T15:56:24;0.40;;;0.40;;
10311;SDS011;5201;48.776;9.128;2022-09-12T15:58:50;0.55;;;0.50;;
10311;SDS011;5201;48.776;9.128;2022-09-12T16:01:16;0.40;;;0.40;;
10311;SDS011;5201;48.776;9.128;2022-09-12T16:03:43;0.65;;;0.30;;
10311;SDS011;5201;48.776;9.128;2022-09-12T16:06:10;0.45;;;0.43;;
10311;SDS011;5201;48.776;9.128;2022-09-12T16:08:36;1.92;;;0.47;;
10311;SDS011;5201;48.776;9.128;2022-09-12T16:11:03;3.38;;;0.50;;
10311;SDS011;5201;48.776;9.128;2022-09-12T16:13:31;0.47;;;0.47;;
10311;SDS011;5201;48.776;9.128;2022-09-12T16:15:57;0.30;;;0.30;;
10311;SDS011;5201;48.776;9.128;2022-09-12T16:18:23;0.47;;;0.45;;
10311;SDS011;5201;48.776;9.128;2022-09-12T16:20:55;0.40;;;0.40;;
10311;SDS011;5201;48.776;9.128;2022-09-12T16:23:22;2.38;;;0.50;;
10311;SDS011;5201;48.776;9.128;2022-09-12T16:25:55;0.75;;;0.43;;
10311;SDS011;5201;48.776;9.128;2022-09-12T16:28:25;0.55;;;0.38;;
10311;SDS011;5201;48.776;9.128;2022-09-12T16:30:58;0.50;;;0.50;;
10311;SDS011;5201;48.776;9.128;2022-09-12T16:33:25;0.80;;;0.50;;
10311;SDS011;5201;48.776;9.128;2022-09-12T16:35:52;1.63;;;0.40;;
10311;SDS011;5201;48.776;9.128;2022-09-12T16:38:20;1.75;;;0.52;;
10311;SDS011;5201;48.776;9.128;2022-09-12T16:40:46;0.57;;;0.50;;
10311;SDS011;5201;48.776;9.128;2022-09-12T16:43:12;0.50;;;0.50;;
10311;SDS011;5201;48.776;9.128;2022-09-12T16:45:41;0.70;;;0.40;;
10311;SDS011;5201;48.776;9.128;2022-09-12T16:48:07;0.38;;;0.38;;
10311;SDS011;5201;48.776;9.128;2022-09-12T16:50:33;2.15;;;0.40;;
10311;SDS011;5201;48.776;9.128;2022-09-12T16:52:59;0.50;;;0.50;;
10311;SDS011;5201;48.776;9.128;2022-09-12T16:55:24;0.50;;;0.50;;
10311;SDS011;5201;48.776;9.128;2022-09-12T16:57:52;0.65;;;0.50;;
10311;SDS011;5201;48.776;9.128;2022-09-12T17:00:18;0.40;;;0.40;;
10311;SDS011;5201;48.776;9.128;2022-09-12T17:02:44;0.75;;;0.55;;
10311;SDS011;5201;48.776;9.128;2022-09-12T17:05:12;0.40;;;0.40;;
10311;SDS011;5201;48.776;9.128;2022-09-12T17:07:40;0.40;;;0.40;;
10311;SDS011;5201;48.776;9.128;2022-09-12T17:10:05;0.50;;;0.50;;
10311;SDS011;5201;48.776;9.128;2022-09-12T17:12:32;0.52;;;0.47;;
10311;SDS011;5201;48.776;9.128;2022-09-12T17:14:58;0.73;;;0.40;;
10311;SDS011;5201;48.776;9.128;2022-09-12T17:17:23;1.05;;;0.47;;
10311;SDS011;5201;48.776;9.128;2022-09-12T17:19:49;0.75;;;0.55;;
10311;SDS011;5201;48.776;9.128;2022-09-12T17:22:14;1.85;;;0.50;;
10311;SDS011;5201;48.776;9.128;2022-09-12T17:24:40;0.43;;;0.40;;
10311;SDS011;5201;48.776;9.128;2022-09-12T17:27:05;0.93;;;0.50;;
10311;SDS011;5201;48.776;9.128;2022-09-12T17:29:31;0.47;;;0.43;;